Time;durP1;ratioP1;P1;durP2;ratioP2;P2;SDS_P1;SDS_P2;PMS_P1;PMS_P2;Temp;Humidity;BMP_temperature;BMP_pressure;BME280_temperature;BME280_humidity;BME280_pressure;Samples;Min_cycle;Max_cycle;Signal;HPM_P1;HPM_P2
2022/06/18 03:37:47;;;;;;;;;;;;;;;11.47;94.06;100055.16;6233139;22;20002;-83
2022/06/18 03:40:13;;;;;;;;;;;;;;;11.66;93.81;100055.22;6244594;23;19955;-83
2022/06/18 03:42:38;;;;;;;;;;;;;;;11.85;93.61;100060.63;6244652;23;20330;-83
2022/06/18 03:45:04;;;;;;;;;;;;;;;11.25;93.95;100062.22;6245797;23;19912;-84
2022/06/18 03:47:29;;;;;;;;;;;;;;;11.56;95.40;100068.03;6219159;23;19938;-82
2022/06/18 03:49:54;;;;;;;;;;;;;;;11.67;95.01;100063.13;6246112;23;19923;-83
2022/06/18 03:52:19;;;;;;;;;;;;;;;11.63;94.01;100069.50;6244281;23;19911;-83
2022/06/18 03:54:45;;;;;;;;;;;;;;;11.27;95.38;100075.44;6245985;23;19947;-83
2022/06/18 03:57:14;;;;;;;;;;;;;;;11.62;95.95;100071.28;6246298;23;19919;-83
2022/06/18 03:59:40;;;;;;;;;;;;;;;11.71;95.47;100064.75;6245804;23;19922;-86
2022/06/18 04:02:05;;;;;;;;;;;;;;;11.43;93.60;100071.19;6219201;23;19990;-85
2022/06/18 04:04:30;;;;;;;;;;;;;;;11.36;95.79;100069.75;6245832;23;20307;-84
2022/06/18 04:06:55;;;;;;;;;;;;;;;11.55;96.25;100064.53;6217723;23;19918;-84
2022/06/18 04:09:21;;;;;;;;;;;;;;;11.71;95.75;100059.44;6243847;23;19922;-84
2022/06/18 04:11:46;;;;;;;;;;;;;;;11.30;94.17;100055.88;6244927;23;20002;-84
2022/06/18 04:14:11;;;;;;;;;;;;;;;11.44;96.23;100048.22;6243125;23;19918;-84
2022/06/18 04:16:36;;;;;;;;;;;;;;;11.71;96.69;100053.25;6245582;23;19947;-84
2022/06/18 04:19:02;;;;;;;;;;;;;;;11.86;96.40;100057.03;6244250;23;19974;-83
2022/06/18 04:21:27;;;;;;;;;;;;;;;11.43;95.83;100052.63;6217258;23;19973;-83
2022/06/18 04:23:52;;;;;;;;;;;;;;;11.62;97.82;100049.19;6244964;23;20320;-83
2022/06/18 04:26:18;;;;;;;;;;;;;;;11.84;98.09;100049.13;6245785;23;19951;-83
2022/06/18 04:28:43;;;;;;;;;;;;;;;11.93;97.59;100046.09;6218609;23;19908;-83
2022/06/18 04:31:08;;;;;;;;;;;;;;;11.48;97.19;100051.59;6245988;23;20299;-83
2022/06/18 04:33:34;;;;;;;;;;;;;;;11.63;98.64;100056.22;6244000;23;19914;-83
2022/06/18 04:35:59;;;;;;;;;;;;;;;11.85;98.46;100044.69;6217102;23;20655;-83
2022/06/18 04:38:25;;;;;;;;;;;;;;;11.94;97.66;100055.78;6245465;23;19922;-83
2022/06/18 04:40:51;;;;;;;;;;;;;;;11.38;97.58;100054.63;6245724;23;19927;-83
2022/06/18 04:43:16;;;;;;;;;;;;;;;11.67;98.56;100051.66;6245606;23;20228;-83
2022/06/18 04:45:41;;;;;;;;;;;;;;;11.79;98.07;100045.78;6218572;23;19922;-83
2022/06/18 04:48:07;;;;;;;;;;;;;;;11.81;96.84;100043.97;6245868;23;19934;-82
2022/06/18 04:50:34;;;;;;;;;;;;;;;11.42;97.64;100044.72;6245756;23;19916;-83
2022/06/18 04:53:00;;;;;;;;;;;;;;;11.61;98.22;100039.50;6244108;23;20274;-83
2022/06/18 04:55:25;;;;;;;;;;;;;;;11.73;97.41;100046.09;6245171;23;19912;-82
2022/06/18 04:57:50;;;;;;;;;;;;;;;11.48;95.02;100040.97;6245266;23;19920;-84
2022/06/18 13:22:41;;;;;;;;;;;;;;;11.98;99.44;99554.63;6219291;22;19931;-86
2022/06/18 13:32:06;;;;;;;;;;;;;;;;;;;;;
2022/06/18 13:41:17;;;;;;;;;;;;;;;;;;;;;
2022/06/18 14:08:47;;;;;;;;;;;;;;;11.98;89.28;99464.38;5917791;24;19994;-86
2022/06/18 14:15:15;;;;;;;;;;;;;;;;;;;;;
2022/06/18 14:17:48;;;;;;;;;;;;;;;;;;;;;
2022/06/18 14:33:23;;;;;;;;;;;;;;;12.00;91.31;99443.91;6139135;23;19992;-89
2022/06/18 14:36:20;;;;;;;;;;;;;;;;;;;;;
2022/06/18 14:39:15;;;;;;;;;;;;;;;;;;;;;
2022/06/18 15:00:26;;;;;;;;;;;;;;;12.40;91.32;99404.53;6247930;22;19915;-87
2022/06/18 15:06:23;;;;;;;;;;;;;;;12.22;92.32;99379.88;6260860;22;19915;-88
2022/06/18 15:09:24;;;;;;;;;;;;;;;;;;;;;
2022/06/18 15:12:11;;;;;;;;;;;;;;;12.11;90.33;99375.16;6277403;22;19997;-86
2022/06/18 15:15:12;;;;;;;;;;;;;;;12.39;92.26;99381.53;6277010;22;20322;-87
2022/06/18 15:18:14;;;;;;;;;;;;;;;12.58;91.82;99376.03;6166990;22;19920;-87
2022/06/18 15:20:53;;;;;;;;;;;;;;;12.13;91.76;99370.59;6276950;22;19957;-86
2022/06/18 15:23:32;;;;;;;;;;;;;;;12.43;92.84;99364.50;6276880;22;19911;-84
2022/06/18 15:26:03;;;;;;;;;;;;;;;12.65;92.19;99355.28;6276655;22;19923;-86
2022/06/18 15:28:38;;;;;;;;;;;;;;;12.23;91.28;99354.16;6276715;22;19915;-86
2022/06/18 15:31:29;;;;;;;;;;;;;;;12.49;92.77;99348.22;6275191;22;20266;-86
2022/06/18 15:34:08;;;;;;;;;;;;;;;12.72;92.43;99333.56;6275493;22;19947;-87
2022/06/18 15:36:35;;;;;;;;;;;;;;;12.27;91.44;99337.94;6277025;22;20049;-85
2022/06/18 15:42:15;;;;;;;;;;;;;;;12.81;92.50;99331.31;6260532;22;20334;-87
2022/06/18 15:44:42;;;;;;;;;;;;;;;12.44;90.98;99336.13;6276545;22;19918;-85
2022/06/18 15:47:21;;;;;;;;;;;;;;;12.57;93.23;99337.09;6275171;22;19915;-86
2022/06/18 15:49:49;;;;;;;;;;;;;;;12.76;92.73;99331.56;6276419;22;19965;-85
2022/06/18 15:52:37;;;;;;;;;;;;;;;12.70;91.31;99329.28;6276982;22;19911;-84
2022/06/18 15:55:22;;;;;;;;;;;;;;;12.51;93.47;99324.22;6276668;22;19915;-88
2022/06/18 15:58:16;;;;;;;;;;;;;;;;;;;;;
2022/06/18 16:00:44;;;;;;;;;;;;;;;12.68;90.92;99308.13;6274795;22;19986;-88
2022/06/18 16:03:23;;;;;;;;;;;;;;;12.56;93.26;99307.97;6275019;22;20027;-87
2022/06/18 16:06:03;;;;;;;;;;;;;;;;;;;;;
2022/06/18 16:08:31;;;;;;;;;;;;;;;12.95;92.09;99310.06;6276759;22;20280;-86
2022/06/18 16:11:24;;;;;;;;;;;;;;;12.59;92.79;99299.81;6286279;22;20559;-87
2022/06/18 16:13:57;;;;;;;;;;;;;;;12.88;92.78;99290.97;6249519;22;19922;-87
2022/06/18 16:16:28;;;;;;;;;;;;;;;13.11;91.98;99290.53;6273482;22;19911;-86
2022/06/18 16:19:01;;;;;;;;;;;;;;;12.62;91.70;99287.22;6276086;22;19919;-87
2022/06/18 16:21:27;;;;;;;;;;;;;;;12.86;93.00;99273.38;6276826;22;19911;-87
2022/06/18 16:24:28;;;;;;;;;;;;;;;13.04;92.13;99276.75;6274755;22;19976;-86
2022/06/18 16:26:55;;;;;;;;;;;;;;;12.53;91.83;99272.66;6251060;22;19915;-86
2022/06/18 16:29:25;;;;;;;;;;;;;;;12.89;93.02;99266.09;6276228;22;19915;-87
2022/06/18 16:31:50;;;;;;;;;;;;;;;13.13;92.02;99265.56;6274720;22;19923;-87
2022/06/18 16:34:22;;;;;;;;;;;;;;;12.79;89.98;99256.97;6276233;22;19911;-86
2022/06/18 16:37:07;;;;;;;;;;;;;;;12.83;92.79;99258.50;6274976;22;19922;-86
2022/06/18 16:39:46;;;;;;;;;;;;;;;13.05;92.43;99252.72;6276214;22;19911;-85
2022/06/18 16:42:49;;;;;;;;;;;;;;;;;;;;;
2022/06/18 16:45:21;;;;;;;;;;;;;;;12.79;93.08;99248.97;6276157;22;19975;-89
2022/06/18 16:47:48;;;;;;;;;;;;;;;13.15;92.83;99247.69;6272977;22;19938;-87
2022/06/18 16:50:21;;;;;;;;;;;;;;;13.76;89.23;99242.13;6276268;22;19919;-87
2022/06/18 16:52:57;;;;;;;;;;;;;;;13.12;87.27;99241.72;6248864;22;20342;-88
2022/06/18 16:55:28;;;;;;;;;;;;;;;13.09;86.71;99242.75;6276038;22;19911;-86
2022/06/18 16:57:56;;;;;;;;;;;;;;;13.08;85.37;99241.03;6275999;22;20049;-85
2022/06/18 17:00:31;;;;;;;;;;;;;;;12.74;84.76;99242.25;6242447;23;19912;-88
2022/06/18 17:02:59;;;;;;;;;;;;;;;12.77;85.55;99237.59;6242017;23;20085;-85
2022/06/18 17:05:29;;;;;;;;;;;;;;;12.95;84.71;99234.75;6217030;23;19990;-85
2022/06/18 17:08:14;;;;;;;;;;;;;;;12.60;82.78;99235.09;6242323;23;20398;-86
2022/06/18 17:10:45;;;;;;;;;;;;;;;12.68;85.40;99222.19;6242209;23;19911;-86
2022/06/18 17:13:39;;;;;;;;;;;;;;;;;;;;;
2022/06/18 17:16:11;;;;;;;;;;;;;;;12.50;83.93;99214.38;6240373;23;19998;-86
2022/06/18 17:18:42;;;;;;;;;;;;;;;12.40;85.70;99210.56;6242425;23;20343;-85
2022/06/18 17:21:27;;;;;;;;;;;;;;;;;;;;;
2022/06/18 17:32:43;;;;;;;;;;;;;;;12.58;86.69;99184.69;6269510;22;20239;-87
2022/06/18 17:35:37;;;;;;;;;;;;;;;12.18;87.50;99174.66;6275681;22;19918;-87
2022/06/18 17:41:40;;;;;;;;;;;;;;;12.54;87.62;99181.38;6181397;23;19984;-87
2022/06/18 17:44:12;;;;;;;;;;;;;;;12.22;89.79;99171.81;6173047;23;19920;-87
2022/06/18 17:47:08;;;;;;;;;;;;;;;12.67;89.76;99167.34;6263316;22;19923;-87
2022/06/18 17:52:56;;;;;;;;;;;;;;;12.38;90.91;99156.69;6264553;22;19966;-87
2022/06/18 17:56:02;;;;;;;;;;;;;;;12.68;90.89;99147.78;6248650;22;19922;-88
2022/06/18 18:02:14;;;;;;;;;;;;;;;12.57;92.81;99150.25;6144861;23;20065;-90
2022/06/18 18:04:51;;;;;;;;;;;;;;;;;;;;;
2022/06/18 18:13:24;;;;;;;;;;;;;;;;;;;;;
2022/06/18 18:16:13;;;;;;;;;;;;;;;13.74;93.10;99140.22;6274789;22;20002;-91
2022/06/18 18:18:39;;;;;;;;;;;;;;;14.06;92.03;99145.19;6276374;22;20319;-93
2022/06/18 21:01:55;;;;;;;;;;;;;;;13.56;91.35;99017.16;6091927;23;19928;-91
2022/06/18 21:10:25;;;;;;;;;;;;;;;13.59;91.80;99017.81;6214998;23;19990;-93
2022/06/18 21:13:21;;;;;;;;;;;;;;;13.17;90.37;99003.72;6188313;23;20235;-90
2022/06/18 22:21:16;;;;;;;;;;;;;;;13.76;100.00;98965.25;6261591;22;19919;-91
2022/06/18 22:31:48;;;;;;;;;;;;;;;13.97;100.00;98976.19;6263138;22;19923;-85
2022/06/18 22:37:58;;;;;;;;;;;;;;;;;;;;;
2022/06/18 22:43:20;;;;;;;;;;;;;;;13.76;99.78;98973.22;6252442;22;19938;-88
2022/06/18 22:45:59;;;;;;;;;;;;;;;13.59;100.00;98966.38;6273638;22;19946;-88
2022/06/18 22:51:32;;;;;;;;;;;;;;;13.52;99.56;98973.09;6212211;23;20340;-88
2022/06/18 22:54:03;;;;;;;;;;;;;;;13.77;100.00;98961.63;6211538;23;19912;-89
2022/06/18 22:57:12;;;;;;;;;;;;;;;13.91;100.00;98965.97;6251966;22;19915;-89
2022/06/18 22:59:47;;;;;;;;;;;;;;;13.60;100.00;98952.97;6234597;22;20323;-90
2022/06/18 23:02:22;;;;;;;;;;;;;;;13.83;100.00;98949.69;6273345;22;19911;-90
2022/06/18 23:08:05;;;;;;;;;;;;;;;13.73;100.00;98944.16;6121644;23;19913;-90
2022/06/18 23:10:46;;;;;;;;;;;;;;;13.52;99.03;98941.16;6152149;23;19916;-90
2022/06/18 23:13:33;;;;;;;;;;;;;;;;;;;;;
2022/06/18 23:19:14;;;;;;;;;;;;;;;13.47;99.86;98930.84;6277065;22;19915;-90
2022/06/18 23:21:53;;;;;;;;;;;;;;;;;;;;;
2022/06/18 23:24:39;;;;;;;;;;;;;;;13.53;98.61;98925.09;6276931;22;19990;-89
2022/06/18 23:30:29;;;;;;;;;;;;;;;;;;;;;
2022/06/18 23:39:04;;;;;;;;;;;;;;;;;;;;;
2022/06/18 23:42:11;;;;;;;;;;;;;;;13.72;100.00;98911.38;6036841;23;20402;-91
2022/06/18 23:44:50;;;;;;;;;;;;;;;;;;;;;
2022/06/18 23:47:18;;;;;;;;;;;;;;;13.58;100.00;98904.31;6275491;22;19983;-88
2022/06/18 23:49:55;;;;;;;;;;;;;;;13.82;100.00;98906.25;6277140;22;19911;-90
2022/06/18 23:53:02;;;;;;;;;;;;;;;;;;;;;
2022/06/18 23:55:24;;;;;;;;;;;;;;;13.72;100.00;98916.69;6271398;22;19911;-88
2022/06/18 23:57:54;;;;;;;;;;;;;;;13.32;98.21;98913.22;6276496;22;19915;-94
